Time;durP1;ratioP1;P1;durP2;ratioP2;P2;SDS_P1;SDS_P2;PMS_P1;PMS_P2;Temp;Humidity;BMP_temperature;BMP_pressure;BME280_temperature;BME280_humidity;BME280_pressure;Samples;Min_cycle;Max_cycle;Signal;HPM_P1;HPM_P2
2023/05/08 00:01:51;;;;;;;66.80;31.90;;;;;;;2.72;65.48;101488.60;131498;1248;107374;-76
2023/05/08 00:04:56;;;;;;;65.50;32.90;;;;;;;2.69;65.46;101486.34;131466;1248;107595;-75
2023/05/08 00:08:02;;;;;;;65.60;31.70;;;;;;;2.65;65.63;101484.06;131477;1250;107566;-76
2023/05/08 00:11:07;;;;;;;63.10;31.20;;;;;;;2.62;65.48;101483.13;131510;1250;107518;-75
2023/05/08 00:14:13;;;;;;;81.20;38.60;;;;;;;2.55;65.53;101483.77;131520;1248;107535;-76
2023/05/08 00:17:18;;;;;;;111.10;45.50;;;;;;;2.49;65.42;101483.05;131536;1247;106191;-74
2023/05/08 00:20:24;;;;;;;96.10;41.40;;;;;;;2.41;65.32;101487.46;131557;1250;107322;-74
2023/05/08 00:23:29;;;;;;;94.60;41.00;;;;;;;2.36;65.76;101486.94;131519;1248;107545;-76
2023/05/08 00:26:35;;;;;;;134.20;55.40;;;;;;;2.36;65.64;101491.86;131476;1248;107504;-75
2023/05/08 00:29:40;;;;;;;222.10;82.60;;;;;;;2.32;65.83;101492.95;131471;1250;107512;-76
2023/05/08 00:32:46;;;;;;;149.70;61.20;;;;;;;2.26;65.89;101494.09;131496;1249;107431;-76
2023/05/08 00:35:58;;;;;;;115.30;48.70;;;;;;;2.24;65.89;101493.80;131448;1248;107514;-76
2023/05/08 00:39:03;;;;;;;83.40;37.20;;;;;;;2.23;65.97;101497.03;131504;1250;107508;-76
2023/05/08 00:42:09;;;;;;;69.30;32.70;;;;;;;2.21;65.81;101498.34;131427;1248;107317;-77
2023/05/08 00:45:14;;;;;;;60.50;30.60;;;;;;;2.19;65.96;101500.55;131411;1250;107524;-76
2023/05/08 00:48:21;;;;;;;62.80;29.70;;;;;;;2.15;65.90;101501.23;131478;1250;106469;-76
2023/05/08 00:51:27;;;;;;;57.20;28.20;;;;;;;2.11;65.91;101505.96;131471;1248;107428;-76
2023/05/08 00:54:33;;;;;;;59.30;28.20;;;;;;;2.09;66.04;101508.70;131527;1247;107362;-77
2023/05/08 00:57:38;;;;;;;52.20;26.40;;;;;;;2.08;66.06;101512.27;131280;1253;107396;-76
2023/05/08 01:00:46;;;;;;;52.70;25.60;;;;;;;2.06;66.13;101515.31;131456;1254;107501;-75
2023/05/08 01:03:53;;;;;;;57.40;26.40;;;;;;;2.05;66.16;101515.18;131513;1250;107463;-74
2023/05/08 01:06:59;;;;;;;48.00;22.70;;;;;;;2.05;66.16;101518.71;131416;1254;106142;-74
2023/05/08 01:10:05;;;;;;;44.50;21.60;;;;;;;2.04;65.98;101521.57;131464;1250;107231;-76
2023/05/08 01:13:18;;;;;;;41.30;20.40;;;;;;;2.03;65.97;101523.37;131461;1251;107526;-76
2023/05/08 01:16:35;;;;;;;36.30;17.50;;;;;;;2.04;66.22;101529.09;131496;1250;107498;-76
2023/05/08 01:20:06;;;;;;;35.90;19.30;;;;;;;2.11;66.17;101534.23;131500;1251;107489;-76
2023/05/08 01:23:40;;;;;;;36.40;19.30;;;;;;;2.18;66.06;101536.23;131473;1250;106020;-76
2023/05/08 01:27:28;;;;;;;35.80;18.50;;;;;;;2.20;66.03;101541.08;131509;1251;107513;-76
2023/05/08 01:30:58;;;;;;;35.70;18.20;;;;;;;2.20;66.15;101544.59;131244;1251;107506;-74
2023/05/08 01:34:08;;;;;;;40.30;21.50;;;;;;;2.17;65.96;101545.59;131461;1250;107497;-75
2023/05/08 01:37:20;;;;;;;40.30;21.20;;;;;;;2.00;65.46;101542.10;131172;1248;107311;-76
2023/05/08 01:40:35;;;;;;;38.70;20.30;;;;;;;1.96;66.27;101543.82;131471;1248;107479;-75
2023/05/08 01:43:53;;;;;;;36.80;19.80;;;;;;;2.00;66.27;101545.28;131496;1250;107523;-76
2023/05/08 01:47:03;;;;;;;40.50;22.20;;;;;;;2.02;66.03;101546.25;131491;1250;107514;-75
2023/05/08 01:50:18;;;;;;;47.10;23.80;;;;;;;1.98;66.13;101546.75;131297;1248;107223;-75
2023/05/08 01:53:28;;;;;;;45.10;23.30;;;;;;;1.91;66.06;101546.48;131564;1250;107486;-73
2023/05/08 01:56:36;;;;;;;49.80;24.50;;;;;;;1.86;65.97;101549.33;131527;1249;107337;-74
2023/05/08 01:59:44;;;;;;;52.70;25.00;;;;;;;1.85;66.21;101552.21;131499;1257;107234;-74
2023/05/08 02:02:51;;;;;;;50.80;23.10;;;;;;;1.83;66.08;101551.59;131540;1251;107276;-75
2023/05/08 02:05:57;;;;;;;47.00;22.50;;;;;;;1.80;66.15;101551.02;131541;1252;107262;-76
2023/05/08 02:09:03;;;;;;;49.40;23.90;;;;;;;1.76;66.12;101550.13;131088;1248;107525;-76
2023/05/08 02:12:12;;;;;;;42.90;22.50;;;;;;;1.73;66.23;101548.83;131348;1263;109339;-75
2023/05/08 02:15:19;;;;;;;42.00;21.30;;;;;;;1.68;66.24;101552.23;131400;1253;107367;-75
2023/05/08 02:18:28;;;;;;;41.00;20.00;;;;;;;1.63;66.25;101555.23;131386;1253;107509;-75
2023/05/08 02:21:35;;;;;;;33.90;18.40;;;;;;;1.56;66.09;101555.35;131316;1247;107239;-75
2023/05/08 02:24:43;;;;;;;35.00;18.30;;;;;;;1.53;66.36;101558.11;131302;1253;107448;-75
2023/05/08 02:27:50;;;;;;;34.30;18.70;;;;;;;1.51;66.27;101560.98;131241;1251;107521;-74
2023/05/08 02:30:58;;;;;;;35.30;18.30;;;;;;;1.50;66.21;101561.71;131491;1253;107434;-74
2023/05/08 02:34:06;;;;;;;34.10;17.00;;;;;;;1.49;66.33;101557.38;131449;1248;107832;-74
2023/05/08 02:37:13;;;;;;;35.00;17.50;;;;;;;1.48;66.25;101559.70;131474;1248;107496;-74
2023/05/08 02:40:20;;;;;;;33.20;17.40;;;;;;;1.45;66.36;101568.42;131433;1254;107498;-77
2023/05/08 02:43:26;;;;;;;31.80;17.00;;;;;;;1.43;66.44;101563.96;131208;1248;107500;-75
2023/05/08 02:46:44;;;;;;;32.30;16.90;;;;;;;1.42;66.40;101564.89;131235;1248;106402;-76
2023/05/08 02:49:53;;;;;;;33.00;16.70;;;;;;;1.38;66.41;101567.80;131336;1248;107351;-77
2023/05/08 02:53:06;;;;;;;34.50;18.20;;;;;;;1.38;66.50;101573.08;131202;1253;107536;-77
2023/05/08 02:56:28;;;;;;;32.80;16.80;;;;;;;1.37;66.40;101571.56;131110;1253;107538;-77
2023/05/08 02:59:40;;;;;;;34.50;17.30;;;;;;;1.36;66.49;101569.49;131204;1253;107524;-77
2023/05/08 03:02:48;;;;;;;;;;;;;;;1.35;66.65;101573.58;131141;1248;107333;-77
2023/05/08 03:05:56;;;;;;;30.50;16.90;;;;;;;1.34;66.59;101575.86;131100;1247;107327;-77
2023/05/08 03:09:05;;;;;;;35.50;18.20;;;;;;;1.36;66.72;101580.17;131250;1253;107539;-76
2023/05/08 03:12:16;;;;;;;39.00;19.90;;;;;;;1.38;66.59;101583.23;131267;1247;107440;-76
2023/05/08 03:15:26;;;;;;;39.80;20.90;;;;;;;1.40;66.61;101580.89;131251;1253;107354;-77
2023/05/08 03:18:35;;;;;;;36.10;20.50;;;;;;;1.38;66.73;101582.02;131219;1253;107440;-77
2023/05/08 03:21:44;;;;;;;36.80;19.70;;;;;;;1.38;66.66;101584.30;131232;1247;107375;-76
2023/05/08 03:24:51;;;;;;;35.10;20.50;;;;;;;1.39;66.73;101586.90;131094;1253;107473;-77
2023/05/08 03:27:58;;;;;;;39.50;21.10;;;;;;;1.40;66.78;101588.77;131292;1253;106254;-78
2023/05/08 03:31:07;;;;;;;37.10;21.50;;;;;;;1.44;66.83;101586.52;131246;1253;107409;-76
2023/05/08 03:34:14;;;;;;;36.40;20.70;;;;;;;1.49;66.86;101586.67;131226;1248;105876;-77
2023/05/08 03:37:19;;;;;;;36.00;19.00;;;;;;;1.59;66.78;101585.93;131140;1253;107527;-76
2023/05/08 03:40:27;;;;;;;45.70;22.00;;;;;;;1.70;66.86;101580.38;131163;1257;107494;-77
2023/05/08 03:43:34;;;;;;;45.80;23.30;;;;;;;1.82;66.94;101583.57;131420;1252;107480;-76
2023/05/08 03:46:40;;;;;;;43.00;23.50;;;;;;;1.99;66.88;101586.88;131115;1247;107448;-76
2023/05/08 03:49:47;;;;;;;41.60;21.90;;;;;;;2.20;66.88;101587.22;131238;1251;107532;-76
2023/05/08 03:52:54;;;;;;;40.90;22.80;;;;;;;2.45;66.80;101586.99;131320;1247;107391;-77
2023/05/08 03:56:00;;;;;;;42.90;23.70;;;;;;;2.70;66.92;101590.08;131089;1253;107464;-77
2023/05/08 03:59:14;;;;;;;37.50;21.70;;;;;;;2.95;66.97;101595.64;131180;1254;106377;-76
2023/05/08 04:02:28;;;;;;;40.00;22.30;;;;;;;3.20;66.69;101595.36;131243;1251;107372;-76
2023/05/08 04:05:41;;;;;;;39.20;20.90;;;;;;;3.42;66.73;101597.48;131380;1253;107510;-76
2023/05/08 04:08:54;;;;;;;36.80;21.30;;;;;;;3.67;66.83;101597.69;131217;1248;107421;-77
2023/05/08 04:12:09;;;;;;;37.50;20.90;;;;;;;3.91;66.68;101596.32;131115;1247;106548;-77
2023/05/08 04:15:20;;;;;;;36.90;20.80;;;;;;;4.12;66.67;101598.27;131241;1247;107357;-77
2023/05/08 04:18:30;;;;;;;38.30;21.10;;;;;;;4.35;66.60;101600.77;131260;1247;107249;-78
2023/05/08 04:21:42;;;;;;;34.00;19.40;;;;;;;4.60;66.65;101597.89;131213;1253;107423;-77
2023/05/08 04:24:51;;;;;;;30.60;18.40;;;;;;;4.80;66.72;101603.67;131427;1248;107292;-77
2023/05/08 04:27:58;;;;;;;30.10;17.80;;;;;;;4.98;66.62;101604.81;131233;1253;107418;-77
2023/05/08 04:31:04;;;;;;;57.10;25.80;;;;;;;5.14;66.65;101606.05;131285;1253;107425;-77
2023/05/08 04:34:12;;;;;;;38.30;18.80;;;;;;;5.31;66.74;101601.74;131212;1248;107401;-77
2023/05/08 04:37:26;;;;;;;29.40;17.60;;;;;;;5.44;66.59;101609.85;131398;1248;106425;-77
2023/05/08 04:40:32;;;;;;;29.80;17.70;;;;;;;5.60;66.62;101617.95;131196;1253;107646;-77
2023/05/08 04:43:38;;;;;;;26.90;16.50;;;;;;;5.76;66.78;101621.29;131252;1248;107365;-77
2023/05/08 04:46:45;;;;;;;27.80;16.70;;;;;;;5.94;67.03;101623.27;131225;1248;107393;-77
2023/05/08 04:49:50;;;;;;;27.70;17.60;;;;;;;6.13;67.21;101623.23;131208;1253;108482;-77
2023/05/08 04:52:57;;;;;;;28.00;16.10;;;;;;;6.34;67.22;101630.98;131207;1247;107327;-77
2023/05/08 04:56:03;;;;;;;22.90;14.80;;;;;;;6.51;67.15;101634.20;131299;1247;107349;-77
2023/05/08 04:59:10;;;;;;;23.60;15.00;;;;;;;6.70;67.21;101638.51;131431;1248;107358;-75
2023/05/08 05:02:16;;;;;;;24.80;13.70;;;;;;;6.86;67.54;101640.71;131495;1250;107225;-76
2023/05/08 05:05:22;;;;;;;23.10;13.30;;;;;;;7.05;67.57;101645.98;131724;1248;107478;-77
2023/05/08 05:08:30;;;;;;;23.10;14.20;;;;;;;7.26;67.69;101650.64;131622;1250;107337;-77
2023/05/08 05:11:36;;;;;;;28.90;16.20;;;;;;;7.47;67.85;101649.83;131507;1248;107225;-77
2023/05/08 05:14:41;;;;;;;21.80;12.80;;;;;;;7.72;68.08;101648.34;131673;1251;107423;-76
2023/05/08 05:17:47;;;;;;;23.00;12.10;;;;;;;7.95;68.17;101652.94;131624;1251;107458;-76
2023/05/08 05:20:52;;;;;;;16.30;9.30;;;;;;;8.13;68.31;101649.09;131345;1250;107507;-77
2023/05/08 05:23:58;;;;;;;19.40;9.90;;;;;;;8.31;67.99;101647.86;131556;1250;107441;-76
2023/05/08 05:27:04;;;;;;;19.10;9.20;;;;;;;8.44;67.69;101651.20;131257;1253;107533;-78
2023/05/08 05:30:11;;;;;;;17.20;8.10;;;;;;;8.51;67.59;101650.73;131581;1250;107385;-77
2023/05/08 05:33:17;;;;;;;16.10;7.20;;;;;;;8.62;67.49;101653.03;131319;1254;107480;-78
2023/05/08 05:36:23;;;;;;;15.60;7.40;;;;;;;8.75;67.42;101651.29;131678;1250;107556;-77
2023/05/08 05:39:29;;;;;;;10.30;5.60;;;;;;;8.83;67.70;101652.29;131679;1250;107382;-75
2023/05/08 05:42:34;;;;;;;9.60;5.40;;;;;;;8.89;67.00;101653.48;131773;1250;107198;-78
2023/05/08 05:45:41;;;;;;;8.40;4.60;;;;;;;8.94;67.16;101658.77;131670;1250;107555;-78
2023/05/08 05:48:46;;;;;;;19.90;8.40;;;;;;;8.98;67.24;101656.73;131694;1248;107235;-77
2023/05/08 05:51:52;;;;;;;9.70;4.40;;;;;;;8.99;66.94;101662.83;131585;1251;107444;-78
2023/05/08 05:54:58;;;;;;;9.40;4.60;;;;;;;9.02;66.81;101658.20;131533;1260;107350;-76
2023/05/08 05:58:03;;;;;;;13.70;5.70;;;;;;;9.02;66.37;101657.67;131419;1251;107610;-76
2023/05/08 06:01:10;;;;;;;10.60;4.30;;;;;;;9.01;66.25;101654.03;131426;1254;107407;-76
2023/05/08 06:04:15;;;;;;;7.80;4.30;;;;;;;9.02;66.44;101653.03;131379;1253;107538;-76
2023/05/08 06:07:21;;;;;;;6.30;3.80;;;;;;;9.03;66.42;101654.95;131491;1251;107497;-76
2023/05/08 06:10:27;;;;;;;8.80;4.40;;;;;;;9.05;66.55;101657.65;131555;1250;107461;-76
2023/05/08 06:13:33;;;;;;;16.10;6.30;;;;;;;9.03;66.30;101654.77;131261;1253;107652;-77
2023/05/08 06:16:39;;;;;;;7.80;4.00;;;;;;;8.98;66.11;101654.23;131509;1250;107405;-76
2023/05/08 06:19:54;;;;;;;7.20;4.00;;;;;;;8.98;66.33;101659.91;131252;1251;106724;-76
2023/05/08 06:23:00;;;;;;;5.30;3.60;;;;;;;9.02;66.59;101663.70;131524;1248;107450;-75
2023/05/08 06:26:06;;;;;;;9.90;5.40;;;;;;;9.03;66.30;101658.70;131495;1250;107333;-76
2023/05/08 06:29:11;;;;;;;7.30;4.40;;;;;;;9.02;66.40;101659.06;131400;1250;107509;-77
2023/05/08 06:32:16;;;;;;;8.00;4.50;;;;;;;9.04;66.32;101660.39;131512;1260;107485;-76
2023/05/08 06:35:22;;;;;;;4.40;3.40;;;;;;;9.07;66.75;101658.98;131513;1249;107189;-76
2023/05/08 06:38:28;;;;;;;4.20;2.90;;;;;;;9.10;65.92;101654.86;131519;1253;107490;-76
2023/05/08 06:41:33;;;;;;;4.90;3.20;;;;;;;9.12;66.32;101655.77;131491;1250;107476;-78
2023/05/08 06:44:39;;;;;;;4.20;2.70;;;;;;;9.15;65.95;101654.10;131500;1250;107478;-77
2023/05/08 06:47:45;;;;;;;3.40;2.80;;;;;;;9.18;66.05;101651.96;131539;1248;107198;-77
2023/05/08 06:50:52;;;;;;;3.40;2.80;;;;;;;9.24;65.83;101650.31;131494;1250;107469;-77
2023/05/08 06:53:57;;;;;;;4.80;3.10;;;;;;;9.32;65.95;101656.27;131545;1251;107444;-77
2023/05/08 06:57:03;;;;;;;4.60;2.90;;;;;;;9.39;65.73;101658.73;131520;1259;107511;-77
2023/05/08 07:00:13;;;;;;;3.10;2.50;;;;;;;9.43;65.56;101661.52;131597;1250;107517;-77
2023/05/08 07:03:19;;;;;;;3.50;2.40;;;;;;;9.47;65.83;101662.16;131634;1250;107210;-77
2023/05/08 07:06:24;;;;;;;4.70;3.10;;;;;;;9.53;65.44;101670.74;131552;1250;107468;-77
2023/05/08 07:09:30;;;;;;;3.50;2.80;;;;;;;9.60;65.39;101668.43;131476;1250;107516;-77
2023/05/08 07:12:35;;;;;;;5.60;2.50;;;;;;;9.68;65.04;101667.71;131546;1248;108060;-77
2023/05/08 07:15:41;;;;;;;3.10;2.10;;;;;;;9.74;64.74;101671.14;131537;1250;107540;-78
2023/05/08 07:18:46;;;;;;;2.60;2.00;;;;;;;9.78;64.30;101670.17;131504;1251;107598;-77
2023/05/08 07:21:52;;;;;;;3.60;2.20;;;;;;;9.82;64.08;101671.27;131507;1250;107344;-77
2023/05/08 07:24:58;;;;;;;2.80;2.10;;;;;;;9.90;64.43;101669.63;131470;1252;105844;-77
2023/05/08 07:28:03;;;;;;;4.00;2.70;;;;;;;9.99;63.89;101669.51;131501;1255;107401;-78
2023/05/08 07:31:09;;;;;;;5.10;2.70;;;;;;;10.05;63.26;101666.92;131512;1250;107442;-77
2023/05/08 07:34:14;;;;;;;2.60;2.20;;;;;;;10.12;63.49;101664.58;131521;1260;107350;-77
2023/05/08 07:37:20;;;;;;;2.90;2.20;;;;;;;10.24;63.40;101662.64;131557;1251;107337;-78
2023/05/08 07:40:25;;;;;;;3.00;2.20;;;;;;;10.36;63.41;101664.94;131472;1250;107377;-78
2023/05/08 07:43:31;;;;;;;6.20;2.80;;;;;;;10.44;62.60;101667.38;131554;1254;107519;-77
2023/05/08 07:46:36;;;;;;;3.60;2.10;;;;;;;10.53;62.87;101666.16;131504;1254;107546;-77
2023/05/08 07:49:42;;;;;;;4.40;1.90;;;;;;;10.65;62.01;101667.22;131547;1261;107521;-77
2023/05/08 07:52:48;;;;;;;2.90;2.00;;;;;;;10.74;62.09;101666.33;131512;1253;107525;-77
2023/05/08 07:55:53;;;;;;;2.60;1.80;;;;;;;10.87;61.77;101663.55;131510;1251;107487;-78
2023/05/08 07:58:59;;;;;;;3.10;2.10;;;;;;;10.95;61.61;101662.75;131463;1251;107477;-77
2023/05/08 08:02:05;;;;;;;2.60;2.20;;;;;;;10.93;61.19;101664.14;131472;1260;107508;-77
2023/05/08 08:05:10;;;;;;;2.90;2.20;;;;;;;11.06;61.78;101663.06;131525;1251;107240;-78
2023/05/08 08:08:16;;;;;;;4.50;2.30;;;;;;;11.15;60.69;101660.47;131510;1254;107258;-78
2023/05/08 08:11:22;;;;;;;4.60;2.30;;;;;;;11.21;60.48;101665.30;131534;1259;107519;-77
2023/05/08 08:14:28;;;;;;;3.20;2.20;;;;;;;11.25;59.44;101665.70;131470;1248;107097;-77
2023/05/08 08:17:33;;;;;;;2.90;2.30;;;;;;;11.22;59.63;101665.02;131494;1250;107512;-78
2023/05/08 08:20:43;;;;;;;2.80;2.30;;;;;;;11.14;59.83;101663.93;131584;1251;107521;-78
2023/05/08 08:23:48;;;;;;;3.00;2.00;;;;;;;11.14;60.14;101657.45;131719;1251;107874;-78
2023/05/08 08:26:54;;;;;;;2.60;1.80;;;;;;;11.28;59.91;101652.11;131719;1260;107424;-78
2023/05/08 08:30:00;;;;;;;3.10;2.00;;;;;;;11.45;59.26;101654.80;131711;1254;108098;-78
2023/05/08 08:33:06;;;;;;;2.80;2.40;;;;;;;11.58;59.20;101655.73;131711;1254;107206;-78
2023/05/08 08:36:16;;;;;;;3.20;2.20;;;;;;;11.67;59.35;101651.21;131736;1248;107161;-77
2023/05/08 08:39:21;;;;;;;2.40;2.20;;;;;;;11.75;58.71;101646.64;131628;1260;107454;-78
2023/05/08 08:42:27;;;;;;;2.70;2.40;;;;;;;11.79;59.42;101644.95;131707;1251;107297;-77
2023/05/08 08:45:33;;;;;;;2.90;2.30;;;;;;;11.76;57.85;101650.67;131529;1248;107511;-77
2023/05/08 08:48:43;;;;;;;2.70;2.20;;;;;;;11.81;58.21;101644.59;131497;1248;107482;-77
2023/05/08 08:51:56;;;;;;;4.40;2.00;;;;;;;11.93;57.95;101643.10;131454;1250;107507;-77
2023/05/08 08:55:07;;;;;;;2.80;2.40;;;;;;;12.03;58.10;101641.03;131474;1257;107562;-77
2023/05/08 08:58:18;;;;;;;2.40;2.20;;;;;;;12.11;57.82;101642.78;131522;1254;107311;-77
2023/05/08 09:01:24;;;;;;;2.70;2.40;;;;;;;12.26;57.72;101638.23;131513;1260;107394;-77
2023/05/08 09:04:30;;;;;;;2.80;2.30;;;;;;;12.43;57.92;101640.98;131564;1248;107487;-77
2023/05/08 09:07:37;;;;;;;2.50;2.20;;;;;;;12.47;57.30;101641.00;131563;1260;107357;-77
2023/05/08 09:10:43;;;;;;;3.70;2.10;;;;;;;12.52;57.09;101634.02;131504;1255;107194;-75
2023/05/08 09:13:48;;;;;;;5.00;2.50;;;;;;;12.72;57.20;101635.65;131466;1250;107511;-75
2023/05/08 09:16:54;;;;;;;3.70;2.40;;;;;;;12.80;56.30;101637.27;131404;1252;107369;-75
2023/05/08 09:20:02;;;;;;;3.30;2.60;;;;;;;12.86;55.61;101632.27;131495;1252;105660;-75
2023/05/08 09:23:08;;;;;;;3.20;2.20;;;;;;;13.00;56.35;101632.92;131499;1251;106684;-78
2023/05/08 09:26:31;;;;;;;3.90;2.60;;;;;;;13.16;56.19;101631.98;131531;1260;105813;-75
2023/05/08 09:29:37;;;;;;;3.10;2.40;;;;;;;13.38;54.86;101630.95;131501;1260;108463;-75
2023/05/08 09:32:44;;;;;;;2.90;2.60;;;;;;;13.50;54.82;101630.27;131510;1250;107232;-75
2023/05/08 09:35:49;;;;;;;5.00;2.90;;;;;;;13.59;54.82;101628.54;131544;1250;107518;-76
2023/05/08 09:38:55;;;;;;;3.20;2.50;;;;;;;13.75;54.04;101630.83;131518;1253;107510;-75
2023/05/08 09:42:02;;;;;;;4.70;2.40;;;;;;;13.82;53.56;101630.95;131482;1259;106790;-75
2023/05/08 09:45:11;;;;;;;3.90;2.70;;;;;;;13.83;53.88;101631.21;131523;1254;107219;-75
2023/05/08 09:48:16;;;;;;;3.60;2.70;;;;;;;13.86;53.87;101634.36;131509;1260;107383;-75
2023/05/08 09:51:22;;;;;;;3.70;2.70;;;;;;;13.83;53.50;101631.02;131534;1251;107474;-78
2023/05/08 09:54:28;;;;;;;4.40;3.00;;;;;;;13.71;52.57;101629.96;131551;1251;107476;-77
2023/05/08 09:57:37;;;;;;;3.00;2.50;;;;;;;13.62;52.52;101624.56;131535;1260;107560;-77
2023/05/08 10:00:43;;;;;;;3.20;2.60;;;;;;;13.46;51.72;101628.27;131540;1253;107541;-77
2023/05/08 10:03:49;;;;;;;3.90;2.60;;;;;;;13.44;52.02;101622.61;131488;1254;107510;-76
2023/05/08 10:06:59;;;;;;;3.70;2.80;;;;;;;13.46;52.22;101622.05;131497;1260;107390;-77
2023/05/08 10:10:06;;;;;;;3.80;2.70;;;;;;;13.50;52.55;101617.88;131568;1250;107358;-77
2023/05/08 10:13:12;;;;;;;3.10;2.50;;;;;;;13.58;51.90;101610.75;131537;1248;107290;-77
2023/05/08 10:16:20;;;;;;;4.20;2.80;;;;;;;13.54;51.47;101608.23;131505;1260;107474;-77
2023/05/08 10:19:27;;;;;;;3.20;2.40;;;;;;;13.45;51.24;101605.98;131547;1254;107190;-76
2023/05/08 10:22:36;;;;;;;3.30;2.40;;;;;;;13.50;51.91;101600.27;131501;1260;106534;-76
2023/05/08 10:25:45;;;;;;;3.00;2.60;;;;;;;13.81;51.83;101596.63;131516;1248;107299;-77
2023/05/08 10:28:57;;;;;;;6.50;2.60;;;;;;;14.14;50.93;101588.23;131562;1251;107413;-76
2023/05/08 10:32:08;;;;;;;3.30;2.70;;;;;;;14.39;50.42;101594.00;131560;1250;107223;-76
2023/05/08 10:35:14;;;;;;;3.40;2.70;;;;;;;14.58;50.71;101593.40;131552;1248;107256;-77
2023/05/08 10:38:20;;;;;;;4.10;3.00;;;;;;;14.84;50.91;101596.18;131588;1250;107501;-76
2023/05/08 10:41:28;;;;;;;5.70;3.70;;;;;;;15.09;50.28;101593.77;131540;1251;107207;-77
2023/05/08 10:44:34;;;;;;;4.00;2.60;;;;;;;15.24;50.01;101591.39;131503;1250;107427;-77
2023/05/08 10:47:55;;;;;;;3.20;2.50;;;;;;;15.18;48.40;101590.71;131471;1260;107332;-78
2023/05/08 10:51:06;;;;;;;5.90;3.30;;;;;;;15.02;49.70;101591.39;131475;1250;107401;-76
2023/05/08 10:54:20;;;;;;;4.30;3.00;;;;;;;14.88;48.89;101592.05;131508;1260;107512;-77
2023/05/08 10:57:26;;;;;;;5.10;3.20;;;;;;;14.81;48.74;101591.42;131488;1250;106719;-77
2023/05/08 11:00:54;;;;;;;3.90;2.60;;;;;;;14.92;49.38;101587.36;131481;1260;107445;-76
2023/05/08 11:04:00;;;;;;;4.50;3.00;;;;;;;14.92;48.57;101591.30;131485;1252;107531;-76
2023/05/08 11:07:05;;;;;;;3.00;2.70;;;;;;;14.91;48.88;101591.13;131510;1248;107512;-76
2023/05/08 11:10:15;;;;;;;4.50;2.60;;;;;;;15.02;48.55;101586.89;131518;1260;106050;-76
2023/05/08 11:13:27;;;;;;;3.80;2.80;;;;;;;15.15;48.23;101587.75;131481;1250;107457;-76
2023/05/08 11:17:10;;;;;;;3.00;2.30;;;;;;;15.23;47.47;101580.35;131415;1251;126811;-76
2023/05/08 11:20:16;;;;;;;2.20;2.00;;;;;;;15.33;47.47;101578.14;131429;1250;106504;-77
2023/05/08 11:23:25;;;;;;;6.70;2.30;;;;;;;15.45;46.90;101580.17;131557;1248;107560;-76
2023/05/08 11:26:40;;;;;;;4.00;2.50;;;;;;;15.57;46.73;101574.84;131572;1252;107411;-76
2023/05/08 11:30:06;;;;;;;6.00;3.30;;;;;;;15.65;46.94;101574.96;131534;1251;107528;-76
2023/05/08 11:33:16;;;;;;;2.80;2.40;;;;;;;15.64;46.80;101573.96;131510;1250;107372;-76
2023/05/08 11:36:24;;;;;;;3.70;2.30;;;;;;;15.67;46.79;101566.48;131545;1251;107488;-76
2023/05/08 11:39:29;;;;;;;2.70;2.40;;;;;;;15.83;47.35;101561.01;131530;1250;107238;-76
2023/05/08 11:42:38;;;;;;;4.80;2.30;;;;;;;16.08;47.11;101556.97;131546;1250;107489;-75
2023/05/08 11:45:45;;;;;;;3.20;2.40;;;;;;;16.18;46.71;101546.46;131512;1257;107616;-76
2023/05/08 11:48:58;;;;;;;3.20;2.40;;;;;;;16.17;46.36;101543.37;131761;1259;107251;-76
2023/05/08 11:52:05;;;;;;;3.60;2.70;;;;;;;16.03;45.79;101551.76;131465;1248;107219;-76
2023/05/08 11:55:12;;;;;;;2.60;2.20;;;;;;;15.73;46.12;101551.95;131564;1248;108096;-76
2023/05/08 11:58:18;;;;;;;2.90;2.30;;;;;;;15.39;46.06;101553.17;131520;1260;105471;-76
2023/05/08 12:01:23;;;;;;;3.00;2.30;;;;;;;15.09;45.84;101560.26;131516;1248;107233;-76
2023/05/08 12:04:29;;;;;;;3.20;2.60;;;;;;;14.80;44.68;101555.17;131489;1250;107366;-75
2023/05/08 12:07:42;;;;;;;3.70;2.20;;;;;;;14.70;46.05;101551.29;131546;1260;107537;-76
2023/05/08 12:10:53;;;;;;;4.00;2.50;;;;;;;14.81;46.25;101545.36;131568;1251;107332;-76
2023/05/08 12:13:58;;;;;;;3.00;2.30;;;;;;;14.93;45.70;101547.10;131594;1260;107498;-76
2023/05/08 12:17:04;;;;;;;2.40;2.20;;;;;;;14.88;45.76;101545.77;131538;1248;107345;-76
2023/05/08 12:20:14;;;;;;;2.40;2.20;;;;;;;14.86;45.31;101540.08;131526;1255;107474;-76
2023/05/08 12:23:20;;;;;;;2.70;2.20;;;;;;;14.94;45.82;101537.70;131308;1248;107228;-76
2023/05/08 12:26:26;;;;;;;4.10;2.40;;;;;;;15.04;45.63;101531.88;131392;1251;107238;-76
2023/05/08 12:29:35;;;;;;;3.00;2.00;;;;;;;15.11;45.06;101530.41;131470;1250;107510;-76
2023/05/08 12:32:42;;;;;;;2.90;1.90;;;;;;;15.18;45.01;101519.96;131509;1251;107495;-76
2023/05/08 12:35:49;;;;;;;2.70;2.30;;;;;;;15.26;44.24;101524.30;131556;1251;106529;-76
2023/05/08 12:39:08;;;;;;;3.40;2.10;;;;;;;15.32;44.62;101521.88;131565;1248;107264;-77
2023/05/08 12:42:13;;;;;;;2.80;2.10;;;;;;;15.48;44.36;101519.11;131465;1248;107311;-76
2023/05/08 12:45:24;;;;;;;2.40;2.10;;;;;;;15.64;44.52;101510.09;131530;1248;107250;-76
2023/05/08 12:48:29;;;;;;;2.40;2.20;;;;;;;15.86;44.23;101512.41;131542;1250;107466;-76
2023/05/08 12:51:35;;;;;;;3.20;2.10;;;;;;;15.99;43.90;101503.38;131509;1251;106531;-76
2023/05/08 12:54:45;;;;;;;2.20;2.00;;;;;;;16.07;44.03;101501.29;131500;1250;106542;-76
2023/05/08 12:57:58;;;;;;;2.80;2.10;;;;;;;16.08;43.78;101504.54;131535;1248;109254;-76
2023/05/08 13:01:11;;;;;;;2.20;2.00;;;;;;;16.12;43.52;101501.86;131489;1250;107475;-76
2023/05/08 13:04:17;;;;;;;2.60;2.20;;;;;;;16.17;43.72;101497.39;131499;1248;107363;-76
2023/05/08 13:07:22;;;;;;;2.80;2.20;;;;;;;16.17;43.38;101502.46;131481;1250;107393;-76
2023/05/08 13:10:42;;;;;;;2.50;2.20;;;;;;;16.03;43.32;101500.11;131477;1251;107457;-76
2023/05/08 13:13:48;;;;;;;3.80;2.40;;;;;;;15.76;43.40;101506.89;131492;1248;107508;-76
2023/05/08 13:16:53;;;;;;;3.10;2.20;;;;;;;15.51;43.23;101501.02;131506;1260;107516;-76
2023/05/08 13:19:59;;;;;;;3.60;2.40;;;;;;;15.32;43.13;101501.98;131539;1248;107200;-76
2023/05/08 13:23:05;;;;;;;3.00;1.90;;;;;;;15.28;42.63;101496.30;131511;1251;107488;-76
2023/05/08 13:26:10;;;;;;;2.60;1.90;;;;;;;15.25;42.72;101492.16;131576;1259;106465;-76
2023/05/08 13:29:16;;;;;;;4.00;2.10;;;;;;;15.16;43.00;101493.92;131554;1248;107249;-75
2023/05/08 13:32:21;;;;;;;3.90;2.40;;;;;;;15.05;42.83;101494.83;131507;1248;107504;-75
2023/05/08 13:35:28;;;;;;;2.70;2.20;;;;;;;14.95;42.79;101493.48;131519;1248;108118;-75
2023/05/08 13:38:34;;;;;;;3.60;2.50;;;;;;;14.88;42.75;101489.67;131606;1251;107352;-76
2023/05/08 13:41:40;;;;;;;3.70;2.50;;;;;;;14.84;42.96;101487.77;131515;1247;108079;-76
2023/05/08 13:44:45;;;;;;;2.80;2.40;;;;;;;14.85;42.79;101479.13;131595;1251;107478;-76
2023/05/08 13:47:51;;;;;;;3.50;2.70;;;;;;;14.96;42.74;101470.98;131449;1248;107501;-76
2023/05/08 13:50:56;;;;;;;3.90;2.60;;;;;;;15.12;42.66;101470.98;131474;1248;107525;-76
2023/05/08 13:54:02;;;;;;;7.90;3.10;;;;;;;15.28;42.52;101459.09;131486;1250;107536;-76
2023/05/08 13:57:08;;;;;;;4.10;2.60;;;;;;;15.42;42.59;101458.66;131448;1251;107352;-76
2023/05/08 14:00:15;;;;;;;5.90;2.80;;;;;;;15.54;42.66;101459.85;131531;1250;105492;-76
2023/05/08 14:03:21;;;;;;;4.30;2.30;;;;;;;15.61;42.07;101456.47;131457;1250;107536;-76
2023/05/08 14:06:26;;;;;;;4.10;2.80;;;;;;;15.59;41.98;101455.52;131492;1255;107186;-76
2023/05/08 14:09:32;;;;;;;2.70;2.10;;;;;;;15.59;41.51;101455.38;131524;1250;107566;-75
2023/05/08 14:12:38;;;;;;;3.00;2.30;;;;;;;15.61;41.50;101455.68;131653;1250;107466;-76